Time;durP1;ratioP1;P1;durP2;ratioP2;P2;SDS_P1;SDS_P2;PMS_P1;PMS_P2;Temp;Humidity;BMP_temperature;BMP_pressure;BME280_temperature;BME280_humidity;BME280_pressure;Samples;Min_cycle;Max_cycle;Signal;HPM_P1;HPM_P2
2021/04/03 00:00:41;;;;;;;10.03;5.60;;;8.40;91.80;;;;;;5066178;28;20515;-85
2021/04/03 00:03:09;;;;;;;5.97;2.80;;;8.30;91.70;;;;;;5059250;28;20453;-85
2021/04/03 00:05:36;;;;;;;9.63;5.50;;;7.60;91.80;;;;;;5059645;28;20529;-87
2021/04/03 00:08:03;;;;;;;8.80;4.23;;;8.10;92.20;;;;;;5065542;28;20879;-86
2021/04/03 00:10:33;;;;;;;9.57;4.97;;;8.00;92.40;;;;;;5080841;28;20521;-85
2021/04/03 00:13:01;;;;;;;13.17;4.87;;;8.20;92.20;;;;;;5081157;28;20523;-86
2021/04/03 00:15:28;;;;;;;8.93;4.60;;;7.70;92.00;;;;;;5078936;28;20452;-88
2021/04/03 00:17:54;;;;;;;8.48;4.13;;;7.90;92.10;;;;;;5079522;28;20479;-85
2021/04/03 00:20:23;;;;;;;14.63;5.53;;;8.00;92.00;;;;;;5080483;28;20664;-86
2021/04/03 00:22:49;;;;;;;10.13;4.77;;;7.90;91.90;;;;;;5075649;28;20482;-87
2021/04/03 00:25:16;;;;;;;10.27;4.17;;;7.90;92.00;;;;;;5079270;28;20431;-87
2021/04/03 00:27:44;;;;;;;7.00;3.10;;;8.00;92.00;;;;;;5079166;28;20490;-84
2021/04/03 00:30:17;;;;;;;8.80;5.17;;;8.00;92.00;;;;;;5077214;28;20849;-86
2021/04/03 00:32:44;;;;;;;7.25;4.03;;;8.00;92.00;;;;;;5058530;28;20481;-86
2021/04/03 00:35:13;;;;;;;7.30;4.73;;;7.80;92.00;;;;;;5053041;28;20242;-86
2021/04/03 00:37:40;;;;;;;8.27;4.00;;;7.70;92.00;;;;;;5052792;28;20964;-84
2021/04/03 00:40:10;;;;;;;12.00;6.73;;;7.80;91.50;;;;;;5054146;28;20622;-86
2021/04/03 00:42:36;;;;;;;10.57;5.07;;;7.70;91.30;;;;;;5052498;28;21006;-85
2021/04/03 00:45:05;;;;;;;7.88;5.07;;;7.70;91.20;;;;;;5052529;28;20543;-86
2021/04/03 00:47:32;;;;;;;8.30;4.10;;;7.60;90.90;;;;;;5052764;28;20206;-86
2021/04/03 00:49:58;;;;;;;10.33;5.40;;;7.70;90.80;;;;;;5052314;28;20536;-85
2021/04/03 00:52:25;;;;;;;8.10;5.90;;;7.60;91.10;;;;;;5052217;28;20740;-84
2021/04/03 00:54:52;;;;;;;11.27;5.67;;;7.80;90.80;;;;;;5058400;28;20474;-85
2021/04/03 00:57:18;;;;;;;11.95;6.22;;;7.60;90.80;;;;;;5076351;28;20552;-84
2021/04/03 00:59:45;;;;;;;10.30;4.85;;;7.80;90.40;;;;;;5056491;28;20237;-84
2021/04/03 01:02:12;;;;;;;7.03;3.47;;;7.90;90.20;;;;;;5056280;28;20346;-82
2021/04/03 01:04:39;;;;;;;10.23;4.83;;;7.80;90.20;;;;;;5064509;28;20576;-85
2021/04/03 01:07:06;;;;;;;10.40;3.90;;;7.70;90.30;;;;;;5056260;28;20558;-86
2021/04/03 01:09:36;;;;;;;15.50;5.47;;;7.80;90.30;;;;;;5056735;28;20509;-86
2021/04/03 01:12:18;;;;;;;8.38;5.03;;;7.60;90.30;;;;;;5055797;28;20485;-85
2021/04/03 01:14:54;;;;;;;7.13;3.22;;;7.60;90.40;;;;;;5056523;28;20191;-87
2021/04/03 01:17:29;;;;;;;8.68;3.88;;;7.40;90.30;;;;;;5055976;28;20676;-87
2021/04/03 01:20:19;;;;;;;7.13;4.35;;;7.40;90.50;;;;;;5055957;28;20214;-86
2021/04/03 01:23:07;;;;;;;10.35;5.65;;;7.40;90.50;;;;;;5055765;28;20273;-86
2021/04/03 01:25:45;;;;;;;6.80;4.45;;;7.20;90.40;;;;;;5056842;28;20191;-85
2021/04/03 01:28:32;;;;;;;9.90;4.68;;;7.30;90.50;;;;;;5058247;28;20198;-84
2021/04/03 01:31:00;;;;;;;12.80;5.50;;;7.50;90.20;;;;;;5067668;28;20213;-85
2021/04/03 01:33:30;;;;;;;12.77;4.95;;;7.50;90.30;;;;;;5080660;28;20303;-86
2021/04/03 01:36:03;;;;;;;12.50;5.70;;;7.60;90.10;;;;;;5076781;28;20658;-85
2021/04/03 01:38:33;;;;;;;9.18;4.45;;;7.60;90.30;;;;;;5076641;28;20270;-85
2021/04/03 01:41:02;;;;;;;6.05;3.90;;;7.30;90.10;;;;;;5076389;28;20233;-85
2021/04/03 01:43:35;;;;;;;7.68;5.18;;;7.40;90.00;;;;;;5077019;28;20296;-85
2021/04/03 01:46:03;;;;;;;8.23;4.63;;;7.50;90.20;;;;;;5072387;28;20205;-85
2021/04/03 01:48:31;;;;;;;11.57;5.30;;;7.70;90.00;;;;;;5071305;28;20206;-86
2021/04/03 01:50:57;;;;;;;16.23;6.13;;;7.60;90.00;;;;;;5076360;28;20289;-83
2021/04/03 01:53:24;;;;;;;11.37;5.13;;;7.50;90.00;;;;;;5057346;28;20294;-85
2021/04/03 01:55:53;;;;;;;8.20;5.05;;;7.80;89.90;;;;;;5057172;28;20449;-85
2021/04/03 01:58:20;;;;;;;10.30;5.15;;;7.60;89.60;;;;;;5061400;28;20597;-85
2021/04/03 02:00:48;;;;;;;13.35;5.35;;;7.70;89.50;;;;;;5061942;28;20229;-85
2021/04/03 02:03:15;;;;;;;8.68;4.78;;;7.70;89.50;;;;;;5082826;28;20294;-84
2021/04/03 02:05:46;;;;;;;12.33;5.57;;;7.70;89.50;;;;;;5077540;28;20210;-85
2021/04/03 02:08:15;;;;;;;12.82;6.10;;;7.60;89.70;;;;;;5080946;28;20491;-84
2021/04/03 02:10:43;;;;;;;11.27;5.23;;;7.70;89.90;;;;;;5080200;28;20285;-87
2021/04/03 02:13:10;;;;;;;14.05;5.97;;;7.80;90.10;;;;;;5077715;28;20468;-83
2021/04/03 02:15:37;;;;;;;11.02;4.90;;;7.60;90.40;;;;;;5076711;28;20297;-84
2021/04/03 02:18:05;;;;;;;12.32;5.95;;;7.70;90.80;;;;;;5061615;28;20203;-85
2021/04/03 02:20:33;;;;;;;10.73;5.40;;;7.30;90.90;;;;;;5055779;28;20320;-86
2021/04/03 02:23:01;;;;;;;9.20;5.70;;;7.30;91.20;;;;;;5056008;28;20344;-84
2021/04/03 02:25:28;;;;;;;12.85;6.75;;;7.40;91.30;;;;;;5058244;28;20986;-83
2021/04/03 02:27:54;;;;;;;12.23;5.68;;;7.40;91.50;;;;;;5057784;28;20213;-85
2021/04/03 02:30:23;;;;;;;9.95;5.20;;;7.30;91.30;;;;;;5054864;28;20237;-85
2021/04/03 02:32:51;;;;;;;11.57;5.80;;;7.50;91.20;;;;;;5055034;28;20580;-86
2021/04/03 02:35:20;;;;;;;11.80;5.43;;;7.70;90.90;;;;;;5054620;28;20222;-85
2021/04/03 02:37:49;;;;;;;12.18;5.60;;;7.80;91.00;;;;;;5054124;28;20263;-85
2021/04/03 02:40:19;;;;;;;8.75;4.65;;;7.60;91.00;;;;;;5064810;28;20230;-87
2021/04/03 02:42:56;;;;;;;11.00;4.87;;;7.70;90.90;;;;;;5080051;28;20248;-84
2021/04/03 02:45:24;;;;;;;10.10;5.43;;;7.90;90.90;;;;;;5075052;28;20455;-84
2021/04/03 02:47:57;;;;;;;8.18;4.70;;;7.80;90.50;;;;;;5074111;28;20202;-86
2021/04/03 02:50:29;;;;;;;10.13;5.10;;;7.60;90.50;;;;;;5063248;28;20191;-85
2021/04/03 02:52:57;;;;;;;7.57;5.37;;;7.60;90.70;;;;;;5054372;28;20264;-84
2021/04/03 02:55:27;;;;;;;9.80;5.10;;;7.60;90.60;;;;;;5055459;28;20549;-86
2021/04/03 02:57:55;;;;;;;7.83;3.87;;;7.70;90.70;;;;;;5055024;28;20207;-86
2021/04/03 03:00:24;;;;;;;6.38;3.90;;;7.70;90.30;;;;;;5054140;28;20515;-85
2021/04/03 03:02:51;;;;;;;11.80;5.03;;;7.40;90.40;;;;;;5054362;28;20309;-86
2021/04/03 03:05:18;;;;;;;8.52;5.32;;;7.40;90.60;;;;;;5057402;28;20736;-84
2021/04/03 03:07:46;;;;;;;9.40;5.03;;;7.50;90.70;;;;;;5074152;28;20512;-85
2021/04/03 03:10:15;;;;;;;12.33;5.27;;;7.60;90.10;;;;;;5074693;28;20650;-86
2021/04/03 03:12:44;;;;;;;9.00;4.93;;;7.40;90.20;;;;;;5074395;28;20478;-86
2021/04/03 03:15:12;;;;;;;8.40;4.60;;;7.60;90.70;;;;;;5074796;28;20234;-86
2021/04/03 03:17:46;;;;;;;7.53;4.15;;;7.40;90.60;;;;;;5078646;28;20269;-86
2021/04/03 03:20:14;;;;;;;6.60;3.67;;;7.50;90.20;;;;;;5049447;28;20214;-84
2021/04/03 03:22:42;;;;;;;17.20;3.50;;;7.40;90.10;;;;;;5066082;28;20528;-85
2021/04/03 03:25:09;;;;;;;13.93;4.55;;;7.10;90.10;;;;;;5058756;28;20591;-86
2021/04/03 03:27:39;;;;;;;7.50;4.53;;;7.10;90.40;;;;;;5055012;28;20638;-85
2021/04/03 03:30:08;;;;;;;10.35;4.63;;;7.20;90.60;;;;;;5055325;28;20280;-84
2021/04/03 03:32:34;;;;;;;8.10;4.53;;;7.20;90.40;;;;;;5064669;28;20231;-84
2021/04/03 03:35:01;;;;;;;10.30;4.57;;;7.40;90.70;;;;;;5065144;28;20289;-83
2021/04/03 03:37:28;;;;;;;11.18;4.20;;;7.10;90.50;;;;;;5079110;28;20215;-85
2021/04/03 03:39:55;;;;;;;7.15;4.40;;;7.20;90.50;;;;;;5074427;28;20544;-85
2021/04/03 03:42:22;;;;;;;9.30;5.05;;;7.10;90.60;;;;;;5075588;28;20229;-85
2021/04/03 03:44:51;;;;;;;5.80;3.47;;;7.30;90.40;;;;;;5082190;28;20244;-85
2021/04/03 03:47:17;;;;;;;7.07;4.15;;;7.50;90.40;;;;;;5075677;28;20218;-86
2021/04/03 03:49:43;;;;;;;7.93;4.40;;;7.20;90.30;;;;;;5069386;28;20230;-84
2021/04/03 03:52:10;;;;;;;8.05;4.00;;;7.20;90.50;;;;;;5055591;28;20495;-84
2021/04/03 03:54:36;;;;;;;10.10;4.10;;;7.30;90.60;;;;;;5057030;28;20648;-84
2021/04/03 03:57:04;;;;;;;9.90;4.47;;;7.40;90.30;;;;;;5056312;28;20550;-84
2021/04/03 03:59:30;;;;;;;10.98;4.88;;;7.20;90.50;;;;;;5056298;28;20203;-86
2021/04/03 04:01:57;;;;;;;9.40;3.65;;;7.10;90.70;;;;;;5054638;28;20947;-86
2021/04/03 04:04:24;;;;;;;8.50;4.38;;;7.30;90.70;;;;;;5054270;28;20340;-85
2021/04/03 04:06:50;;;;;;;8.40;4.60;;;7.40;90.40;;;;;;5054884;28;20316;-84
2021/04/03 04:09:16;;;;;;;7.80;4.70;;;7.30;90.50;;;;;;5059175;28;20294;-83
2021/04/03 04:11:43;;;;;;;8.40;4.85;;;7.00;90.60;;;;;;5057662;28;20765;-85
2021/04/03 04:14:09;;;;;;;9.05;4.25;;;7.10;90.80;;;;;;5058737;28;20202;-82
2021/04/03 04:16:37;;;;;;;9.15;4.20;;;7.10;90.70;;;;;;5057134;28;20749;-83
2021/04/03 04:19:04;;;;;;;8.55;5.13;;;7.30;90.60;;;;;;5056661;28;20207;-84
2021/04/03 04:21:30;;;;;;;11.77;5.18;;;7.40;90.70;;;;;;5057039;28;20297;-85
2021/04/03 04:23:57;;;;;;;14.82;5.40;;;7.30;90.80;;;;;;5056788;28;20286;-84
2021/04/03 04:26:23;;;;;;;9.93;5.45;;;7.00;91.30;;;;;;5057176;28;20242;-84
2021/04/03 04:28:49;;;;;;;8.30;4.80;;;7.20;91.70;;;;;;5075719;28;20212;-84
2021/04/03 04:31:16;;;;;;;10.90;4.90;;;7.10;91.60;;;;;;5079417;28;20472;-85
2021/04/03 04:33:42;;;;;;;10.50;4.93;;;7.30;91.90;;;;;;5079809;28;20246;-84
2021/04/03 04:36:10;;;;;;;8.98;4.95;;;7.00;91.80;;;;;;5083027;28;20496;-86
2021/04/03 04:38:36;;;;;;;13.33;4.93;;;7.20;91.80;;;;;;5082442;28;20287;-83
2021/04/03 04:41:02;;;;;;;6.25;4.07;;;7.20;91.90;;;;;;5079838;28;20487;-84
2021/04/03 04:43:29;;;;;;;7.27;4.40;;;7.20;91.90;;;;;;5080914;28;20244;-86
2021/04/03 04:45:55;;;;;;;11.55;4.63;;;7.40;91.40;;;;;;5076698;28;20533;-84
2021/04/03 04:48:22;;;;;;;11.60;5.30;;;7.40;91.30;;;;;;5077431;28;20298;-84
2021/04/03 04:50:48;;;;;;;14.07;5.22;;;7.30;91.40;;;;;;5079225;28;20224;-87
2021/04/03 04:53:15;;;;;;;8.70;4.60;;;7.30;91.90;;;;;;5061155;28;20313;-86
2021/04/03 04:55:41;;;;;;;9.80;4.75;;;7.20;92.10;;;;;;5068111;28;20452;-86
2021/04/03 04:58:08;;;;;;;7.68;4.53;;;7.00;92.20;;;;;;5078550;28;20297;-87
2021/04/03 05:00:34;;;;;;;7.40;4.47;;;7.10;92.40;;;;;;5079163;28;20249;-86
2021/04/03 05:03:01;;;;;;;7.13;4.30;;;7.20;92.30;;;;;;5079449;28;21061;-86
2021/04/03 05:05:27;;;;;;;8.20;4.68;;;7.00;92.10;;;;;;5079675;28;20483;-87
2021/04/03 05:07:53;;;;;;;8.17;4.40;;;7.00;92.10;;;;;;5079048;28;20288;-86
2021/04/03 05:10:21;;;;;;;8.82;4.68;;;7.10;92.30;;;;;;5063540;28;20539;-85
2021/04/03 05:12:47;;;;;;;11.80;5.03;;;7.10;92.40;;;;;;5059934;28;20237;-85
2021/04/03 05:15:14;;;;;;;7.72;4.50;;;7.00;92.40;;;;;;5059616;28;20199;-85
2021/04/03 05:17:40;;;;;;;8.70;4.53;;;7.10;92.50;;;;;;5059845;28;20210;-86
2021/04/03 05:20:07;;;;;;;10.48;5.00;;;7.20;92.50;;;;;;5059660;28;20505;-86
2021/04/03 05:22:34;;;;;;;8.13;4.50;;;7.10;92.30;;;;;;5062058;28;20226;-86
2021/04/03 05:25:00;;;;;;;10.35;4.65;;;7.30;92.40;;;;;;5079698;28;20285;-84
2021/04/03 05:27:27;;;;;;;12.68;5.47;;;7.10;92.10;;;;;;5070909;28;20203;-85
2021/04/03 05:29:54;;;;;;;9.57;4.57;;;7.20;92.20;;;;;;5066565;28;20500;-85
2021/04/03 05:32:20;;;;;;;8.02;4.32;;;7.10;92.30;;;;;;5072385;28;20480;-85
2021/04/03 05:34:46;;;;;;;5.90;3.83;;;7.30;92.30;;;;;;5067060;28;20211;-84
2021/04/03 05:37:13;;;;;;;8.57;4.27;;;7.50;92.10;;;;;;5070649;28;20493;-84
2021/04/03 05:39:39;;;;;;;9.27;5.05;;;7.50;92.00;;;;;;5079362;28;20485;-85
2021/04/03 05:42:07;;;;;;;7.95;4.20;;;7.20;92.00;;;;;;5079987;28;20297;-85
2021/04/03 05:44:38;;;;;;;9.68;4.40;;;7.30;91.90;;;;;;5080217;28;20660;-85
2021/04/03 05:47:05;;;;;;;8.93;3.40;;;7.40;91.50;;;;;;5079730;28;20214;-83
2021/04/03 05:49:31;;;;;;;7.40;3.95;;;7.70;91.20;;;;;;5079107;28;20205;-84
2021/04/03 05:51:58;;;;;;;10.27;4.18;;;7.40;91.10;;;;;;5095626;22;20225;-82
2021/04/03 05:54:24;;;;;;;6.38;3.60;;;7.10;91.40;;;;;;5088064;28;20244;-81
2021/04/03 05:56:53;;;;;;;7.32;3.92;;;7.40;91.50;;;;;;5076268;28;20280;-81
2021/04/03 05:59:20;;;;;;;7.53;3.53;;;7.40;91.40;;;;;;5075933;28;20239;-80
2021/04/03 06:01:47;;;;;;;7.47;3.58;;;7.40;91.20;;;;;;5074762;28;20297;-80
2021/04/03 06:04:15;;;;;;;14.40;4.13;;;7.30;91.40;;;;;;5060675;28;20208;-79
2021/04/03 06:06:42;;;;;;;8.27;3.85;;;7.50;91.30;;;;;;5079644;28;20551;-79
2021/04/03 06:09:09;;;;;;;10.30;3.97;;;7.40;91.60;;;;;;5077202;28;20213;-80
2021/04/03 06:11:44;;;;;;;8.07;4.50;;;7.00;91.80;;;;;;5077052;28;20198;-80
2021/04/03 06:14:10;;;;;;;8.45;3.38;;;7.20;92.20;;;;;;5077588;28;20204;-80
2021/04/03 06:16:38;;;;;;;9.45;4.15;;;7.40;91.90;;;;;;5077507;28;20202;-81
2021/04/03 06:19:11;;;;;;;9.05;3.63;;;7.30;92.00;;;;;;5063741;28;20660;-81
2021/04/03 06:21:38;;;;;;;12.48;4.20;;;7.30;92.10;;;;;;5073275;28;20229;-81
2021/04/03 06:24:15;;;;;;;6.53;3.60;;;7.50;92.30;;;;;;5076222;28;20739;-80
2021/04/03 06:26:50;;;;;;;4.90;2.10;;;7.40;92.30;;;;;;5077497;28;20479;-80
2021/04/03 06:29:26;;;;;;;8.18;3.92;;;7.30;92.20;;;;;;5077769;28;20440;-81
2021/04/03 06:31:54;;;;;;;7.07;3.95;;;7.30;93.00;;;;;;5075391;28;20199;-80
2021/04/03 06:34:29;;;;;;;7.70;3.53;;;7.00;92.90;;;;;;5065123;28;20198;-80
2021/04/03 06:36:56;;;;;;;8.95;4.28;;;7.30;92.90;;;;;;5056860;28;20328;-80
2021/04/03 06:39:22;;;;;;;8.18;3.70;;;7.10;92.70;;;;;;5058252;28;20273;-81
2021/04/03 06:41:49;;;;;;;5.45;3.40;;;7.30;93.00;;;;;;5056981;28;20226;-81
2021/04/03 06:44:16;;;;;;;14.50;3.73;;;7.10;92.80;;;;;;5057066;28;20775;-81
2021/04/03 06:46:46;;;;;;;8.63;3.78;;;7.30;92.70;;;;;;5064603;28;20448;-81
2021/04/03 06:49:13;;;;;;;8.15;3.78;;;7.30;93.10;;;;;;5075829;28;20213;-80
2021/04/03 06:51:42;;;;;;;6.90;3.58;;;7.60;92.90;;;;;;5075863;28;20206;-81
2021/04/03 06:54:10;;;;;;;7.03;3.93;;;7.50;92.60;;;;;;5075593;28;20209;-80
2021/04/03 06:56:38;;;;;;;7.78;3.55;;;7.50;92.50;;;;;;5082304;28;20476;-81
2021/04/03 06:59:06;;;;;;;7.13;3.60;;;7.50;92.60;;;;;;5076536;28;20208;-82
2021/04/03 07:01:49;;;;;;;6.75;3.63;;;7.50;92.50;;;;;;5077793;28;20504;-81
2021/04/03 07:04:26;;;;;;;5.20;2.90;;;7.50;92.50;;;;;;5077323;28;20206;-82
2021/04/03 07:06:54;;;;;;;6.03;3.28;;;7.60;92.30;;;;;;5079968;28;20695;-81
2021/04/03 07:09:21;;;;;;;9.27;3.40;;;7.70;92.10;;;;;;5062722;28;20198;-81
2021/04/03 07:11:49;;;;;;;5.17;3.00;;;7.60;92.20;;;;;;5056882;28;20289;-81
2021/04/03 07:14:18;;;;;;;3.10;1.60;;;7.90;92.00;;;;;;5067219;28;20480;-80
2021/04/03 07:16:45;;;;;;;6.67;2.50;;;7.50;92.10;;;;;;5076508;28;20214;-81
2021/04/03 07:19:13;;;;;;;7.68;3.85;;;7.60;92.60;;;;;;5078288;28;20475;-82
2021/04/03 07:21:41;;;;;;;6.47;1.90;;;7.40;92.50;;;;;;5076764;28;20236;-82
2021/04/03 07:24:10;;;;;;;5.63;3.40;;;7.20;92.60;;;;;;5076758;28;20460;-82
2021/04/03 07:26:50;;;;;;;8.53;3.00;;;7.50;93.00;;;;;;5079037;28;20448;-82
2021/04/03 07:29:50;;;;;;;9.05;2.95;;;7.60;92.80;;;;;;5059138;28;20468;-82
2021/04/03 07:32:33;;;;;;;6.43;3.42;;;7.40;92.40;;;;;;5058129;28;20226;-82
2021/04/03 07:35:12;;;;;;;7.90;3.90;;;7.80;92.30;;;;;;5058417;28;20220;-82
2021/04/03 07:37:39;;;;;;;7.70;4.10;;;7.90;92.10;;;;;;5060045;28;20461;-82
2021/04/03 07:40:12;;;;;;;6.90;3.67;;;7.90;91.30;;;;;;5061465;28;20449;-82
2021/04/03 07:42:39;;;;;;;8.77;3.63;;;7.90;91.20;;;;;;5078045;28;20986;-82
2021/04/03 07:45:27;;;;;;;6.50;3.30;;;8.10;91.20;;;;;;5083629;28;20495;-82
2021/04/03 07:47:53;;;;;;;9.13;3.63;;;8.30;90.50;;;;;;5085384;28;20527;-82
2021/04/03 07:50:50;;;;;;;5.50;2.87;;;8.00;90.20;;;;;;5087313;28;20554;-81
2021/04/03 07:53:34;;;;;;;7.40;3.90;;;8.60;90.30;;;;;;5078101;28;20567;-82
2021/04/03 07:56:03;;;;;;;8.50;3.97;;;8.20;90.00;;;;;;5070133;28;20233;-82
2021/04/03 07:58:30;;;;;;;9.33;2.60;;;7.90;90.10;;;;;;5075638;28;20488;-81
2021/04/03 08:00:59;;;;;;;7.07;2.43;;;8.00;90.50;;;;;;5079030;28;20523;-81
2021/04/03 08:03:27;;;;;;;4.03;2.20;;;8.10;91.10;;;;;;5078713;28;20476;-81
2021/04/03 08:05:59;;;;;;;5.68;2.30;;;7.90;90.90;;;;;;5079347;28;20458;-81
2021/04/03 08:08:26;;;;;;;8.70;3.50;;;7.40;91.60;;;;;;5078132;28;20206;-80
2021/04/03 08:11:07;;;;;;;3.95;1.95;;;7.60;91.80;;;;;;5062427;28;20190;-79
2021/04/03 08:13:36;;;;;;;5.53;2.33;;;7.40;91.20;;;;;;5059408;28;20267;-82
2021/04/03 08:16:05;;;;;;;6.67;2.47;;;7.50;91.20;;;;;;5059877;28;20445;-82
2021/04/03 08:18:33;;;;;;;3.80;1.53;;;7.50;91.20;;;;;;5062337;28;20800;-82
2021/04/03 08:21:00;;;;;;;5.05;2.85;;;7.50;91.30;;;;;;5069155;28;20479;-82
2021/04/03 08:23:31;;;;;;;4.10;1.93;;;7.50;91.10;;;;;;5067089;28;20242;-82
2021/04/03 08:25:57;;;;;;;5.82;2.08;;;7.50;90.50;;;;;;5056830;28;20464;-80
2021/04/03 08:28:24;;;;;;;5.30;2.90;;;7.50;90.90;;;;;;5073479;28;20301;-81
2021/04/03 08:30:53;;;;;;;6.40;2.90;;;7.60;91.10;;;;;;5077040;28;20444;-81
2021/04/03 08:33:39;;;;;;;4.87;1.83;;;7.60;90.80;;;;;;5079988;28;20558;-82
2021/04/03 08:36:16;;;;;;;8.40;2.90;;;8.00;90.80;;;;;;5078373;28;20456;-81
2021/04/03 08:38:43;;;;;;;8.10;3.38;;;7.90;90.70;;;;;;5064994;28;20456;-81
2021/04/03 08:41:11;;;;;;;8.35;3.35;;;8.20;90.70;;;;;;5058604;28;20229;-83
2021/04/03 08:43:38;;;;;;;4.73;2.63;;;8.30;90.20;;;;;;5078423;28;20846;-82
2021/04/03 08:46:11;;;;;;;4.93;2.40;;;8.40;88.90;;;;;;5079260;28;20472;-82
2021/04/03 08:48:39;;;;;;;4.97;2.43;;;8.20;88.50;;;;;;5078310;28;20443;-82
2021/04/03 08:51:07;;;;;;;3.93;2.10;;;8.40;88.80;;;;;;5077615;28;20479;-82
2021/04/03 08:53:39;;;;;;;9.03;2.77;;;8.10;89.20;;;;;;5078451;28;20480;-82
2021/04/03 08:56:06;;;;;;;7.67;3.07;;;7.70;89.20;;;;;;5076785;28;20488;-81
2021/04/03 08:58:33;;;;;;;12.67;3.10;;;8.10;90.00;;;;;;5076458;28;20452;-81
2021/04/03 09:01:00;;;;;;;7.70;3.70;;;8.20;89.50;;;;;;5075247;28;20515;-82
2021/04/03 09:03:27;;;;;;;5.97;2.90;;;8.50;89.30;;;;;;5075893;28;20472;-81
2021/04/03 09:05:54;;;;;;;8.97;2.70;;;8.40;87.70;;;;;;5075523;28;20982;-81
2021/04/03 09:08:22;;;;;;;7.30;2.87;;;8.90;86.70;;;;;;5076815;28;20487;-81
2021/04/03 09:10:54;;;;;;;7.07;2.70;;;9.10;86.50;;;;;;5075954;28;20784;-81
2021/04/03 09:13:20;;;;;;;8.17;2.70;;;9.30;84.60;;;;;;5076100;28;20472;-81
2021/04/03 09:15:47;;;;;;;6.20;2.20;;;9.30;84.00;;;;;;5078296;28;20488;-80
2021/04/03 09:18:15;;;;;;;2.40;0.83;;;9.10;84.40;;;;;;5079659;28;20463;-80
2021/04/03 09:20:48;;;;;;;6.60;1.90;;;8.60;83.50;;;;;;5079726;28;20578;-82
2021/04/03 09:23:14;;;;;;;4.43;1.50;;;9.00;84.20;;;;;;5078065;28;20620;-82
2021/04/03 09:25:41;;;;;;;5.50;2.63;;;9.00;83.60;;;;;;5079123;28;20451;-82
2021/04/03 09:28:10;;;;;;;5.53;2.60;;;8.60;84.30;;;;;;5062639;28;20449;-82
2021/04/03 09:30:38;;;;;;;6.30;2.70;;;8.90;84.10;;;;;;5058489;28;20448;-82
2021/04/03 09:33:18;;;;;;;5.53;2.10;;;9.30;83.30;;;;;;5059472;28;20504;-81
2021/04/03 09:35:45;;;;;;;8.03;2.87;;;9.50;81.60;;;;;;5065856;28;20461;-82
2021/04/03 09:38:12;;;;;;;4.63;2.30;;;9.50;81.30;;;;;;5080745;28;20455;-81
2021/04/03 09:40:42;;;;;;;5.97;2.77;;;9.50;81.40;;;;;;5084222;28;21020;-81
2021/04/03 09:43:09;;;;;;;6.13;2.80;;;9.70;81.40;;;;;;5080345;28;20472;-82
2021/04/03 09:45:37;;;;;;;7.20;2.57;;;9.50;80.70;;;;;;5078475;28;20547;-81
2021/04/03 09:48:05;;;;;;;7.73;3.00;;;9.50;79.30;;;;;;5081677;28;20456;-81
2021/04/03 09:50:33;;;;;;;4.60;2.80;;;9.60;79.40;;;;;;5085805;28;20463;-80
2021/04/03 09:53:07;;;;;;;6.00;2.97;;;10.00;78.70;;;;;;5084658;28;20875;-80
2021/04/03 09:55:33;;;;;;;5.10;2.43;;;9.90;79.80;;;;;;5079441;28;20479;-81
2021/04/03 09:58:00;;;;;;;9.00;1.90;;;9.70;79.90;;;;;;5078094;28;20468;-81
2021/04/03 10:00:27;;;;;;;4.50;2.40;;;9.80;80.30;;;;;;5079745;28;20448;-81
2021/04/03 10:02:54;;;;;;;5.90;2.30;;;9.80;78.70;;;;;;5064577;28;20504;-79
2021/04/03 10:05:20;;;;;;;8.73;2.37;;;9.90;78.20;;;;;;5062620;28;20575;-83
2021/04/03 10:07:47;;;;;;;7.20;2.47;;;9.90;77.00;;;;;;5061028;28;20460;-80
2021/04/03 10:10:14;;;;;;;3.60;1.90;;;9.70;76.60;;;;;;5067680;28;20491;-81
2021/04/03 10:12:41;;;;;;;7.50;2.80;;;9.70;76.80;;;;;;5082240;28;20526;-80
2021/04/03 10:15:08;;;;;;;5.30;2.60;;;9.70;77.10;;;;;;5082212;28;20484;-82
2021/04/03 10:17:35;;;;;;;8.40;2.50;;;9.70;78.10;;;;;;5079050;28;20452;-81
2021/04/03 10:20:01;;;;;;;6.87;2.83;;;10.00;76.10;;;;;;5062841;28;20524;-82
2021/04/03 10:22:28;;;;;;;6.50;3.60;;;10.20;75.70;;;;;;5063640;28;20548;-82
2021/04/03 10:24:55;;;;;;;7.33;2.53;;;10.40;75.00;;;;;;5061709;28;20419;-81
2021/04/03 10:27:21;;;;;;;8.00;2.90;;;10.50;74.50;;;;;;5072330;28;20495;-81
2021/04/03 10:29:48;;;;;;;6.80;3.30;;;10.40;74.40;;;;;;5083837;28;20453;-82
2021/04/03 10:32:15;;;;;;;8.53;3.50;;;10.40;74.10;;;;;;5085136;28;20480;-82
2021/04/03 10:34:41;;;;;;;5.90;3.40;;;10.40;73.80;;;;;;5079195;28;20482;-84
2021/04/03 10:37:08;;;;;;;6.37;3.07;;;10.20;74.00;;;;;;5077908;28;20492;-81
2021/04/03 10:39:34;;;;;;;8.10;3.87;;;10.10;74.70;;;;;;5077915;28;20484;-82
2021/04/03 10:42:01;;;;;;;7.40;3.90;;;10.30;75.50;;;;;;5076599;28;20538;-82
2021/04/03 10:44:28;;;;;;;7.43;4.07;;;10.30;75.10;;;;;;5076963;28;20479;-82
2021/04/03 10:46:54;;;;;;;8.63;4.27;;;10.50;75.50;;;;;;5077276;28;20871;-80
2021/04/03 10:49:21;;;;;;;6.60;3.50;;;10.70;74.60;;;;;;5077672;28;20444;-82
2021/04/03 10:51:48;;;;;;;9.67;2.87;;;10.60;74.10;;;;;;5076900;28;20481;-82
2021/04/03 10:54:18;;;;;;;9.07;3.30;;;10.20;75.10;;;;;;5076505;28;20596;-82
2021/04/03 10:56:45;;;;;;;9.03;4.17;;;10.30;74.80;;;;;;5080002;28;20448;-81
2021/04/03 10:59:12;;;;;;;6.40;3.43;;;10.60;73.60;;;;;;5078971;28;20464;-82
2021/04/03 11:01:39;;;;;;;6.70;2.80;;;10.50;73.50;;;;;;5081453;28;20483;-81
2021/04/03 11:04:06;;;;;;;6.27;4.60;;;10.80;72.90;;;;;;5082768;28;20431;-81
2021/04/03 11:06:33;;;;;;;7.90;3.47;;;10.80;72.80;;;;;;5082541;28;20460;-80
2021/04/03 11:09:00;;;;;;;14.60;7.57;;;11.10;72.10;;;;;;5073926;28;20954;-82
2021/04/03 11:11:26;;;;;;;8.80;3.97;;;11.10;71.30;;;;;;5082919;28;20448;-81
2021/04/03 11:13:53;;;;;;;7.70;3.30;;;11.20;71.40;;;;;;5085943;28;20475;-82
2021/04/03 11:16:20;;;;;;;9.80;3.20;;;11.00;71.60;;;;;;5070858;28;20836;-83
2021/04/03 11:18:46;;;;;;;9.10;4.33;;;10.90;71.50;;;;;;5062086;28;20474;-82
2021/04/03 11:21:13;;;;;;;8.70;3.43;;;10.90;71.90;;;;;;5065565;28;20460;-80
2021/04/03 11:23:39;;;;;;;6.20;3.47;;;10.90;71.30;;;;;;5063529;28;20560;-80
2021/04/03 11:26:05;;;;;;;6.53;2.80;;;11.00;70.40;;;;;;5060882;28;20478;-81
2021/04/03 11:28:34;;;;;;;5.90;2.60;;;10.70;70.60;;;;;;5077536;28;20438;-81
2021/04/03 11:31:01;;;;;;;8.77;2.90;;;10.20;71.40;;;;;;5079651;28;20455;-82
2021/04/03 11:33:28;;;;;;;5.07;2.50;;;10.50;71.00;;;;;;5062424;28;21108;-82
2021/04/03 11:35:55;;;;;;;7.23;2.83;;;10.50;71.20;;;;;;5065595;28;20448;-82
2021/04/03 11:38:21;;;;;;;5.33;2.70;;;10.60;70.70;;;;;;5079453;28;20456;-81
2021/04/03 11:40:48;;;;;;;6.63;2.77;;;10.70;70.10;;;;;;5079317;28;20519;-81
2021/04/03 11:43:14;;;;;;;7.37;2.77;;;10.80;69.40;;;;;;5076812;28;20638;-81
2021/04/03 11:45:41;;;;;;;5.60;3.17;;;10.80;68.80;;;;;;5077059;28;20593;-82
2021/04/03 11:48:07;;;;;;;5.23;2.60;;;10.70;69.70;;;;;;5072321;28;20448;-82
2021/04/03 11:50:35;;;;;;;4.57;2.10;;;10.80;69.50;;;;;;5068290;28;20456;-82
2021/04/03 11:53:02;;;;;;;4.10;2.40;;;10.90;66.30;;;;;;5145479;22;20506;-85
2021/04/03 11:55:28;;;;;;;5.63;2.90;;;10.90;66.80;;;;;;5102526;28;20574;-87
2021/04/03 11:57:55;;;;;;;3.40;2.07;;;11.00;67.40;;;;;;5104921;28;20503;-84
2021/04/03 12:00:23;;;;;;;6.63;2.50;;;11.10;67.30;;;;;;5107736;28;20451;-87
2021/04/03 12:02:49;;;;;;;5.20;2.43;;;11.30;66.30;;;;;;5097281;28;20848;-85
2021/04/03 12:05:19;;;;;;;3.70;2.10;;;11.30;66.90;;;;;;5091929;28;20917;-85
2021/04/03 12:07:46;;;;;;;6.10;2.30;;;11.30;68.00;;;;;;5095251;28;20429;-85
2021/04/03 12:10:15;;;;;;;7.63;3.00;;;11.40;68.50;;;;;;5095032;28;20533;-85
2021/04/03 12:12:41;;;;;;;7.53;2.53;;;11.20;68.40;;;;;;5095733;28;20550;-85
2021/04/03 12:15:09;;;;;;;3.70;1.70;;;11.30;67.50;;;;;;5095714;28;20466;-84
2021/04/03 12:17:35;;;;;;;3.70;1.97;;;11.30;66.00;;;;;;5094194;28;20505;-84
2021/04/03 12:20:04;;;;;;;9.27;2.63;;;11.30;66.00;;;;;;5096649;28;20477;-85
2021/04/03 12:22:30;;;;;;;4.37;2.13;;;11.30;66.10;;;;;;5098070;28;20508;-85
2021/04/03 12:24:57;;;;;;;5.47;2.20;;;11.10;64.50;;;;;;5094462;28;20455;-85
2021/04/03 12:27:24;;;;;;;4.23;2.37;;;10.90;64.40;;;;;;5094936;28;20545;-85
2021/04/03 12:29:51;;;;;;;5.20;2.30;;;11.10;63.90;;;;;;5095074;28;20486;-84
2021/04/03 12:32:17;;;;;;;4.80;2.40;;;11.30;64.20;;;;;;5098493;28;20474;-84
2021/04/03 12:34:44;;;;;;;5.37;2.20;;;11.40;63.80;;;;;;5096799;28;20921;-85
2021/04/03 12:37:13;;;;;;;8.60;2.77;;;11.20;63.90;;;;;;5093735;28;20457;-85
2021/04/03 12:39:39;;;;;;;4.70;2.40;;;11.30;65.40;;;;;;5096839;28;20448;-85
2021/04/03 12:42:07;;;;;;;5.17;2.80;;;11.40;65.40;;;;;;5096120;28;20518;-85
2021/04/03 12:44:34;;;;;;;5.23;2.30;;;11.40;65.00;;;;;;5096363;28;20475;-84
2021/04/03 12:47:01;;;;;;;3.93;2.27;;;11.40;65.70;;;;;;5077452;28;20527;-85
2021/04/03 12:49:27;;;;;;;9.33;2.10;;;11.40;64.70;;;;;;5076512;28;20440;-84
2021/04/03 12:51:55;;;;;;;4.90;2.33;;;11.30;64.40;;;;;;5078812;28;20544;-84
2021/04/03 12:54:21;;;;;;;4.00;2.00;;;11.30;63.20;;;;;;5094941;28;20491;-87
2021/04/03 12:56:48;;;;;;;5.50;2.00;;;11.10;62.80;;;;;;5103158;28;20494;-84
2021/04/03 12:59:15;;;;;;;5.17;2.07;;;11.00;63.70;;;;;;5079308;28;20990;-85